createdAt,value
2022-10-07T00:00:08.405Z,8.1
2022-10-07T00:30:15.139Z,7.7
2022-10-07T00:50:19.216Z,7.6
2022-10-07T01:20:26.382Z,7.4
2022-10-07T01:30:29.049Z,7.3
2022-10-07T02:30:43.479Z,7.2
2022-10-07T02:40:45.804Z,7.3
2022-10-07T03:20:54.467Z,7.3
2022-10-07T03:30:56.819Z,7.2
2022-10-07T03:40:58.584Z,7.1
2022-10-07T03:51:00.925Z,7.1
2022-10-07T04:11:04.679Z,7.3
2022-10-07T04:21:06.628Z,7.4
2022-10-07T04:31:08.635Z,7.4
2022-10-07T04:51:12.870Z,7.6
2022-10-07T05:21:20.065Z,7.9
2022-10-07T05:31:32.647Z,7.8
2022-10-07T05:51:36.745Z,7.9
2022-10-07T06:01:38.398Z,8
2022-10-07T06:11:41.190Z,8.3
2022-10-07T06:21:43.731Z,8.7
2022-10-07T06:31:46.300Z,8.9
2022-10-07T06:41:48.022Z,9.2
2022-10-07T06:51:50.648Z,9.4
2022-10-07T07:01:52.556Z,9.7
2022-10-07T07:11:56.526Z,9.9
2022-10-07T07:32:00.173Z,10.5
2022-10-07T08:12:08.556Z,12
2022-10-07T08:32:12.246Z,12.7
2022-10-07T08:52:17.328Z,13.4
2022-10-07T09:02:19.378Z,13.7
2022-10-07T09:12:21.750Z,13.9
2022-10-07T09:22:24.088Z,14.1
2022-10-07T09:32:25.827Z,14.5
2022-10-07T09:52:30.043Z,15.2
2022-10-07T10:02:32.525Z,15.4
2022-10-07T10:12:34.885Z,15.6
2022-10-07T10:22:36.764Z,15.7
2022-10-07T10:42:40.726Z,16.1
2022-10-07T10:52:43.023Z,16
2022-10-07T11:02:45.252Z,16.4
2022-10-07T11:12:47.687Z,16.5
2022-10-07T11:22:49.318Z,16.4
2022-10-07T11:32:51.741Z,16.6
2022-10-07T11:42:54.362Z,16.9
2022-10-07T11:52:56.577Z,16.9
2022-10-07T12:02:58.997Z,17
2022-10-07T12:13:01.468Z,16.7
2022-10-07T12:23:03.746Z,17
2022-10-07T12:33:05.866Z,17.1
2022-10-07T12:43:08.291Z,17
2022-10-07T12:53:10.735Z,16.9
2022-10-07T13:03:13.356Z,17.2
2022-10-07T13:13:15.278Z,17.1
2022-10-07T13:33:19.953Z,17.4
2022-10-07T14:33:33.440Z,17.6
2022-10-07T15:03:39.682Z,17.6
2022-10-07T15:13:41.643Z,17.5
2022-10-07T15:23:44.257Z,17.4
2022-10-07T15:33:46.873Z,17.3
2022-10-07T15:43:49.032Z,17.2
2022-10-07T16:23:58.246Z,17.2
2022-10-07T16:34:00.915Z,16.7
2022-10-07T16:44:03.142Z,16
2022-10-07T16:54:05.476Z,15.7
2022-10-07T18:04:23.811Z,12.5
2022-10-07T18:14:21.390Z,11.9
2022-10-07T18:34:25.536Z,11.9
2022-10-07T18:44:27.534Z,12
2022-10-07T18:54:29.717Z,12
2022-10-07T19:14:34.782Z,11.7
2022-10-07T19:24:37.303Z,11.6
2022-10-07T19:34:39.531Z,11.6
2022-10-07T19:44:41.755Z,11.4
2022-10-07T19:54:43.829Z,11.3
2022-10-07T20:04:46.035Z,11.2
2022-10-07T20:14:48.376Z,11
2022-10-07T20:24:50.325Z,11
2022-10-07T20:34:52.612Z,10.9
2022-10-07T21:04:58.630Z,10.7
2022-10-07T21:15:00.532Z,10.7
2022-10-07T21:25:02.607Z,10.6
2022-10-07T21:35:04.827Z,10.6
2022-10-07T22:05:11.028Z,10.7
2022-10-07T22:15:13.609Z,10.8
2022-10-07T22:25:15.336Z,11
2022-10-07T22:35:17.293Z,11
2022-10-07T22:45:19.668Z,11
2022-10-07T22:55:21.735Z,10.9
2022-10-07T23:05:24.329Z,10.9
2022-10-07T23:15:26.726Z,10.9
2022-10-07T23:55:35.448Z,10.8
